sensor_id;sensor_type;location;lat;lon;timestamp;P1;durP1;ratioP1;P2;durP2;ratioP2
870;SDS011;422;51.280;7.236;2023-06-10T00:00:06;12.17;;;11.07;;
870;SDS011;422;51.280;7.236;2023-06-10T00:02:39;12.60;;;11.60;;
870;SDS011;422;51.280;7.236;2023-06-10T00:05:07;13.00;;;11.70;;
870;SDS011;422;51.280;7.236;2023-06-10T00:07:36;11.90;;;10.87;;
870;SDS011;422;51.280;7.236;2023-06-10T00:10:04;12.40;;;11.40;;
870;SDS011;422;51.280;7.236;2023-06-10T00:12:32;13.20;;;12.10;;
870;SDS011;422;51.280;7.236;2023-06-10T00:15:03;15.17;;;13.97;;
870;SDS011;422;51.280;7.236;2023-06-10T00:17:32;14.63;;;13.33;;
870;SDS011;422;51.280;7.236;2023-06-10T00:20:00;15.67;;;14.37;;
870;SDS011;422;51.280;7.236;2023-06-10T00:22:30;17.27;;;15.60;;
870;SDS011;422;51.280;7.236;2023-06-10T00:24:57;14.93;;;13.73;;
870;SDS011;422;51.280;7.236;2023-06-10T00:27:24;16.83;;;15.23;;
870;SDS011;422;51.280;7.236;2023-06-10T00:29:56;15.90;;;14.50;;
870;SDS011;422;51.280;7.236;2023-06-10T00:32:23;16.20;;;14.80;;
870;SDS011;422;51.280;7.236;2023-06-10T00:34:50;16.70;;;15.30;;
870;SDS011;422;51.280;7.236;2023-06-10T00:37:19;16.03;;;14.70;;
870;SDS011;422;51.280;7.236;2023-06-10T00:39:46;17.27;;;15.20;;
870;SDS011;422;51.280;7.236;2023-06-10T00:42:14;16.50;;;15.20;;
870;SDS011;422;51.280;7.236;2023-06-10T00:44:41;14.97;;;13.77;;
870;SDS011;422;51.280;7.236;2023-06-10T00:47:08;15.07;;;13.87;;
870;SDS011;422;51.280;7.236;2023-06-10T00:49:35;14.60;;;13.50;;
870;SDS011;422;51.280;7.236;2023-06-10T00:52:03;14.63;;;13.43;;
870;SDS011;422;51.280;7.236;2023-06-10T00:54:32;14.50;;;13.40;;
870;SDS011;422;51.280;7.236;2023-06-10T00:57:00;14.73;;;13.53;;
870;SDS011;422;51.280;7.236;2023-06-10T00:59:28;15.73;;;14.27;;
870;SDS011;422;51.280;7.236;2023-06-10T01:01:56;14.80;;;13.50;;
870;SDS011;422;51.280;7.236;2023-06-10T01:04:23;16.47;;;14.97;;
870;SDS011;422;51.280;7.236;2023-06-10T01:06:51;16.00;;;14.60;;
870;SDS011;422;51.280;7.236;2023-06-10T01:09:40;15.50;;;14.10;;
870;SDS011;422;51.280;7.236;2023-06-10T01:12:24;16.60;;;15.10;;
870;SDS011;422;51.280;7.236;2023-06-10T01:14:58;16.90;;;15.30;;
870;SDS011;422;51.280;7.236;2023-06-10T01:17:26;16.37;;;14.97;;
870;SDS011;422;51.280;7.236;2023-06-10T01:19:55;17.13;;;15.43;;
870;SDS011;422;51.280;7.236;2023-06-10T01:22:25;17.40;;;15.93;;
870;SDS011;422;51.280;7.236;2023-06-10T01:24:54;16.43;;;15.13;;
870;SDS011;422;51.280;7.236;2023-06-10T01:27:23;16.37;;;14.80;;
870;SDS011;422;51.280;7.236;2023-06-10T01:29:56;16.37;;;14.83;;
870;SDS011;422;51.280;7.236;2023-06-10T01:32:30;15.83;;;14.43;;
870;SDS011;422;51.280;7.236;2023-06-10T01:35:01;15.80;;;14.50;;
870;SDS011;422;51.280;7.236;2023-06-10T01:37:31;16.07;;;14.57;;
870;SDS011;422;51.280;7.236;2023-06-10T01:39:59;15.77;;;14.37;;
870;SDS011;422;51.280;7.236;2023-06-10T01:42:31;16.90;;;15.40;;
870;SDS011;422;51.280;7.236;2023-06-10T01:44:58;15.73;;;14.43;;
870;SDS011;422;51.280;7.236;2023-06-10T01:47:26;15.40;;;14.20;;
870;SDS011;422;51.280;7.236;2023-06-10T01:49:53;16.20;;;14.90;;
870;SDS011;422;51.280;7.236;2023-06-10T01:52:20;17.10;;;15.70;;
870;SDS011;422;51.280;7.236;2023-06-10T01:54:48;15.40;;;13.90;;
870;SDS011;422;51.280;7.236;2023-06-10T01:57:16;15.40;;;14.00;;
870;SDS011;422;51.280;7.236;2023-06-10T01:59:43;16.03;;;14.70;;
870;SDS011;422;51.280;7.236;2023-06-10T02:02:11;16.67;;;15.17;;
870;SDS011;422;51.280;7.236;2023-06-10T02:04:38;17.07;;;15.37;;
870;SDS011;422;51.280;7.236;2023-06-10T02:07:05;16.60;;;15.10;;
870;SDS011;422;51.280;7.236;2023-06-10T02:09:32;15.87;;;14.47;;
870;SDS011;422;51.280;7.236;2023-06-10T02:12:02;17.60;;;16.10;;
870;SDS011;422;51.280;7.236;2023-06-10T02:14:32;16.50;;;15.10;;
870;SDS011;422;51.280;7.236;2023-06-10T02:16:59;16.53;;;15.03;;
870;SDS011;422;51.280;7.236;2023-06-10T02:19:26;16.23;;;14.83;;
870;SDS011;422;51.280;7.236;2023-06-10T02:21:53;16.80;;;15.40;;
870;SDS011;422;51.280;7.236;2023-06-10T02:24:20;16.70;;;15.20;;
870;SDS011;422;51.280;7.236;2023-06-10T02:26:48;15.00;;;13.80;;
870;SDS011;422;51.280;7.236;2023-06-10T02:29:18;15.17;;;13.97;;
870;SDS011;422;51.280;7.236;2023-06-10T02:31:45;15.80;;;14.40;;
870;SDS011;422;51.280;7.236;2023-06-10T02:34:12;16.97;;;15.23;;
870;SDS011;422;51.280;7.236;2023-06-10T02:36:40;16.80;;;15.20;;
870;SDS011;422;51.280;7.236;2023-06-10T02:39:08;16.70;;;15.20;;
870;SDS011;422;51.280;7.236;2023-06-10T02:41:35;18.67;;;17.00;;
870;SDS011;422;51.280;7.236;2023-06-10T02:44:03;17.20;;;15.70;;
870;SDS011;422;51.280;7.236;2023-06-10T02:46:31;16.10;;;14.90;;
870;SDS011;422;51.280;7.236;2023-06-10T02:48:58;18.00;;;16.13;;
870;SDS011;422;51.280;7.236;2023-06-10T02:51:26;16.80;;;15.23;;
870;SDS011;422;51.280;7.236;2023-06-10T02:53:54;15.97;;;14.50;;
870;SDS011;422;51.280;7.236;2023-06-10T02:56:21;15.70;;;14.40;;
870;SDS011;422;51.280;7.236;2023-06-10T02:58:48;16.50;;;15.10;;
870;SDS011;422;51.280;7.236;2023-06-10T03:01:16;16.73;;;15.13;;
870;SDS011;422;51.280;7.236;2023-06-10T03:03:45;16.00;;;14.60;;
870;SDS011;422;51.280;7.236;2023-06-10T03:06:13;17.30;;;15.70;;
870;SDS011;422;51.280;7.236;2023-06-10T03:08:40;17.70;;;16.23;;
870;SDS011;422;51.280;7.236;2023-06-10T03:11:07;16.87;;;15.47;;
870;SDS011;422;51.280;7.236;2023-06-10T03:13:35;16.80;;;15.20;;
870;SDS011;422;51.280;7.236;2023-06-10T03:16:02;16.80;;;15.47;;
870;SDS011;422;51.280;7.236;2023-06-10T03:18:30;16.50;;;15.10;;
870;SDS011;422;51.280;7.236;2023-06-10T03:20:58;16.03;;;14.63;;
870;SDS011;422;51.280;7.236;2023-06-10T03:23:25;16.80;;;15.40;;
870;SDS011;422;51.280;7.236;2023-06-10T03:25:54;17.20;;;15.70;;
870;SDS011;422;51.280;7.236;2023-06-10T03:28:21;17.03;;;15.60;;
870;SDS011;422;51.280;7.236;2023-06-10T03:30:48;16.40;;;15.00;;
870;SDS011;422;51.280;7.236;2023-06-10T03:33:16;15.60;;;14.30;;
870;SDS011;422;51.280;7.236;2023-06-10T03:35:44;17.23;;;15.73;;
870;SDS011;422;51.280;7.236;2023-06-10T03:38:12;17.57;;;16.07;;
870;SDS011;422;51.280;7.236;2023-06-10T03:40:39;17.13;;;15.60;;
870;SDS011;422;51.280;7.236;2023-06-10T03:43:06;18.80;;;17.10;;
870;SDS011;422;51.280;7.236;2023-06-10T03:45:33;16.57;;;14.87;;
870;SDS011;422;51.280;7.236;2023-06-10T03:48:01;15.63;;;14.23;;
870;SDS011;422;51.280;7.236;2023-06-10T03:50:29;16.47;;;15.07;;
870;SDS011;422;51.280;7.236;2023-06-10T03:52:57;15.97;;;14.57;;
870;SDS011;422;51.280;7.236;2023-06-10T03:55:26;17.43;;;15.93;;
870;SDS011;422;51.280;7.236;2023-06-10T03:57:53;16.37;;;15.03;;
870;SDS011;422;51.280;7.236;2023-06-10T04:00:28;17.23;;;15.73;;
870;SDS011;422;51.280;7.236;2023-06-10T04:02:55;17.53;;;15.87;;
870;SDS011;422;51.280;7.236;2023-06-10T04:05:23;16.40;;;15.00;;
870;SDS011;422;51.280;7.236;2023-06-10T04:07:50;18.40;;;16.70;;
870;SDS011;422;51.280;7.236;2023-06-10T04:10:18;17.33;;;15.83;;
870;SDS011;422;51.280;7.236;2023-06-10T04:12:47;18.17;;;16.57;;
870;SDS011;422;51.280;7.236;2023-06-10T04:15:14;16.43;;;15.03;;
870;SDS011;422;51.280;7.236;2023-06-10T04:17:41;16.00;;;14.60;;
870;SDS011;422;51.280;7.236;2023-06-10T04:20:09;16.93;;;15.50;;
870;SDS011;422;51.280;7.236;2023-06-10T04:22:36;17.87;;;16.47;;
870;SDS011;422;51.280;7.236;2023-06-10T04:25:03;19.03;;;16.20;;
870;SDS011;422;51.280;7.236;2023-06-10T04:27:32;17.90;;;16.30;;
870;SDS011;422;51.280;7.236;2023-06-10T04:30:01;20.43;;;18.50;;
870;SDS011;422;51.280;7.236;2023-06-10T04:32:29;18.57;;;16.97;;
870;SDS011;422;51.280;7.236;2023-06-10T04:34:56;18.47;;;16.87;;
870;SDS011;422;51.280;7.236;2023-06-10T04:37:23;18.70;;;17.10;;
870;SDS011;422;51.280;7.236;2023-06-10T04:39:50;18.63;;;16.97;;
870;SDS011;422;51.280;7.236;2023-06-10T04:42:17;18.17;;;16.57;;
870;SDS011;422;51.280;7.236;2023-06-10T04:44:44;18.60;;;16.80;;
870;SDS011;422;51.280;7.236;2023-06-10T04:47:13;18.10;;;16.60;;
870;SDS011;422;51.280;7.236;2023-06-10T04:49:42;18.53;;;16.90;;
870;SDS011;422;51.280;7.236;2023-06-10T04:52:09;18.90;;;17.10;;
870;SDS011;422;51.280;7.236;2023-06-10T04:54:36;18.03;;;16.33;;
870;SDS011;422;51.280;7.236;2023-06-10T04:57:04;18.17;;;16.43;;
870;SDS011;422;51.280;7.236;2023-06-10T04:59:32;16.47;;;15.17;;
870;SDS011;422;51.280;7.236;2023-06-10T05:02:02;17.43;;;15.83;;
870;SDS011;422;51.280;7.236;2023-06-10T05:04:31;16.93;;;15.47;;
870;SDS011;422;51.280;7.236;2023-06-10T05:06:58;15.90;;;14.50;;
870;SDS011;422;51.280;7.236;2023-06-10T05:09:25;14.83;;;13.50;;
870;SDS011;422;51.280;7.236;2023-06-10T05:11:52;13.80;;;12.60;;
870;SDS011;422;51.280;7.236;2023-06-10T05:14:20;14.77;;;13.60;;
870;SDS011;422;51.280;7.236;2023-06-10T05:16:47;16.70;;;15.30;;
870;SDS011;422;51.280;7.236;2023-06-10T05:19:15;15.20;;;13.90;;
870;SDS011;422;51.280;7.236;2023-06-10T05:21:44;16.00;;;14.30;;
870;SDS011;422;51.280;7.236;2023-06-10T05:24:11;15.87;;;14.47;;
870;SDS011;422;51.280;7.236;2023-06-10T05:26:39;16.37;;;14.97;;
870;SDS011;422;51.280;7.236;2023-06-10T05:29:06;15.87;;;14.40;;
870;SDS011;422;51.280;7.236;2023-06-10T05:31:34;17.23;;;15.50;;
870;SDS011;422;51.280;7.236;2023-06-10T05:34:01;13.93;;;12.57;;
870;SDS011;422;51.280;7.236;2023-06-10T05:36:28;15.33;;;13.77;;
870;SDS011;422;51.280;7.236;2023-06-10T05:38:57;14.50;;;13.20;;
870;SDS011;422;51.280;7.236;2023-06-10T05:41:24;14.70;;;13.30;;
870;SDS011;422;51.280;7.236;2023-06-10T05:43:51;14.70;;;13.30;;
870;SDS011;422;51.280;7.236;2023-06-10T05:46:18;13.70;;;12.60;;
870;SDS011;422;51.280;7.236;2023-06-10T05:48:46;12.80;;;11.57;;
870;SDS011;422;51.280;7.236;2023-06-10T05:51:13;14.67;;;13.53;;
870;SDS011;422;51.280;7.236;2023-06-10T05:53:40;13.27;;;12.07;;
870;SDS011;422;51.280;7.236;2023-06-10T05:56:09;12.77;;;11.53;;
870;SDS011;422;51.280;7.236;2023-06-10T05:58:36;14.27;;;12.20;;
870;SDS011;422;51.280;7.236;2023-06-10T06:01:03;14.10;;;12.80;;
870;SDS011;422;51.280;7.236;2023-06-10T06:03:30;12.67;;;11.67;;
870;SDS011;422;51.280;7.236;2023-06-10T06:05:57;12.40;;;11.40;;
870;SDS011;422;51.280;7.236;2023-06-10T06:08:25;11.60;;;10.70;;
870;SDS011;422;51.280;7.236;2023-06-10T06:10:52;12.27;;;11.17;;
870;SDS011;422;51.280;7.236;2023-06-10T06:13:20;12.50;;;11.40;;
870;SDS011;422;51.280;7.236;2023-06-10T06:15:47;11.93;;;10.90;;
870;SDS011;422;51.280;7.236;2023-06-10T06:18:15;11.23;;;10.23;;
870;SDS011;422;51.280;7.236;2023-06-10T06:20:43;12.30;;;11.13;;
870;SDS011;422;51.280;7.236;2023-06-10T06:23:10;11.93;;;10.83;;
870;SDS011;422;51.280;7.236;2023-06-10T06:25:38;12.33;;;11.27;;
870;SDS011;422;51.280;7.236;2023-06-10T06:28:05;12.20;;;10.93;;
870;SDS011;422;51.280;7.236;2023-06-10T06:30:35;11.40;;;10.50;;
870;SDS011;422;51.280;7.236;2023-06-10T06:33:02;11.27;;;10.37;;
870;SDS011;422;51.280;7.236;2023-06-10T06:35:30;11.13;;;9.70;;
870;SDS011;422;51.280;7.236;2023-06-10T06:37:59;10.80;;;9.90;;
870;SDS011;422;51.280;7.236;2023-06-10T06:40:26;10.80;;;9.90;;
870;SDS011;422;51.280;7.236;2023-06-10T06:42:53;10.50;;;9.70;;
870;SDS011;422;51.280;7.236;2023-06-10T06:45:20;9.80;;;9.10;;
870;SDS011;422;51.280;7.236;2023-06-10T06:47:49;10.60;;;9.80;;
870;SDS011;422;51.280;7.236;2023-06-10T06:50:16;14.13;;;9.77;;
870;SDS011;422;51.280;7.236;2023-06-10T06:52:43;10.50;;;9.50;;
870;SDS011;422;51.280;7.236;2023-06-10T06:55:10;10.50;;;9.80;;
870;SDS011;422;51.280;7.236;2023-06-10T06:57:38;10.20;;;9.40;;
870;SDS011;422;51.280;7.236;2023-06-10T07:00:06;10.80;;;10.00;;
870;SDS011;422;51.280;7.236;2023-06-10T07:02:34;9.53;;;8.83;;
870;SDS011;422;51.280;7.236;2023-06-10T07:05:03;10.07;;;9.17;;
870;SDS011;422;51.280;7.236;2023-06-10T07:07:30;10.40;;;9.70;;
870;SDS011;422;51.280;7.236;2023-06-10T07:09:58;9.90;;;9.03;;
870;SDS011;422;51.280;7.236;2023-06-10T07:12:25;8.93;;;8.23;;
870;SDS011;422;51.280;7.236;2023-06-10T07:14:52;10.03;;;8.97;;
870;SDS011;422;51.280;7.236;2023-06-10T07:17:19;9.53;;;8.73;;
870;SDS011;422;51.280;7.236;2023-06-10T07:19:46;10.13;;;9.13;;
870;SDS011;422;51.280;7.236;2023-06-10T07:22:15;10.40;;;9.50;;
870;SDS011;422;51.280;7.236;2023-06-10T07:24:42;10.70;;;9.80;;
870;SDS011;422;51.280;7.236;2023-06-10T07:27:09;10.27;;;9.33;;
870;SDS011;422;51.280;7.236;2023-06-10T07:29:36;9.50;;;8.70;;
870;SDS011;422;51.280;7.236;2023-06-10T07:32:04;9.37;;;8.67;;
870;SDS011;422;51.280;7.236;2023-06-10T07:34:31;9.43;;;8.63;;
870;SDS011;422;51.280;7.236;2023-06-10T07:36:58;9.43;;;8.63;;
870;SDS011;422;51.280;7.236;2023-06-10T07:39:27;9.90;;;9.00;;
870;SDS011;422;51.280;7.236;2023-06-10T07:41:54;10.23;;;9.53;;
870;SDS011;422;51.280;7.236;2023-06-10T07:44:22;10.37;;;9.23;;
870;SDS011;422;51.280;7.236;2023-06-10T07:46:50;9.77;;;8.97;;
870;SDS011;422;51.280;7.236;2023-06-10T07:49:17;8.87;;;8.27;;
870;SDS011;422;51.280;7.236;2023-06-10T07:51:44;10.40;;;9.50;;
870;SDS011;422;51.280;7.236;2023-06-10T07:54:11;9.33;;;8.63;;
870;SDS011;422;51.280;7.236;2023-06-10T07:56:40;9.17;;;8.37;;
870;SDS011;422;51.280;7.236;2023-06-10T07:59:07;8.50;;;7.80;;
870;SDS011;422;51.280;7.236;2023-06-10T08:01:34;9.43;;;8.73;;
870;SDS011;422;51.280;7.236;2023-06-10T08:04:04;9.87;;;8.87;;
870;SDS011;422;51.280;7.236;2023-06-10T08:06:32;10.00;;;9.20;;
870;SDS011;422;51.280;7.236;2023-06-10T08:09:00;9.27;;;8.47;;
870;SDS011;422;51.280;7.236;2023-06-10T08:11:27;9.57;;;8.87;;
870;SDS011;422;51.280;7.236;2023-06-10T08:13:56;9.27;;;8.57;;
870;SDS011;422;51.280;7.236;2023-06-10T08:16:23;8.83;;;8.03;;
870;SDS011;422;51.280;7.236;2023-06-10T08:18:50;9.60;;;8.70;;
870;SDS011;422;51.280;7.236;2023-06-10T08:21:18;10.17;;;9.37;;
870;SDS011;422;51.280;7.236;2023-06-10T08:23:45;10.17;;;9.27;;
870;SDS011;422;51.280;7.236;2023-06-10T08:26:12;9.50;;;8.70;;
870;SDS011;422;51.280;7.236;2023-06-10T08:28:39;8.97;;;8.30;;
870;SDS011;422;51.280;7.236;2023-06-10T08:31:08;9.33;;;8.43;;
870;SDS011;422;51.280;7.236;2023-06-10T08:33:35;10.10;;;9.20;;
870;SDS011;422;51.280;7.236;2023-06-10T08:36:02;9.73;;;8.93;;
870;SDS011;422;51.280;7.236;2023-06-10T08:38:30;9.40;;;8.60;;
870;SDS011;422;51.280;7.236;2023-06-10T08:40:59;9.67;;;8.83;;
870;SDS011;422;51.280;7.236;2023-06-10T08:43:29;8.77;;;8.10;;
870;SDS011;422;51.280;7.236;2023-06-10T08:46:00;8.87;;;8.27;;
870;SDS011;422;51.280;7.236;2023-06-10T08:48:30;9.87;;;9.17;;
870;SDS011;422;51.280;7.236;2023-06-10T08:50:59;10.30;;;9.00;;
870;SDS011;422;51.280;7.236;2023-06-10T08:53:28;10.40;;;9.60;;
870;SDS011;422;51.280;7.236;2023-06-10T08:55:58;9.30;;;8.60;;
870;SDS011;422;51.280;7.236;2023-06-10T08:58:28;9.53;;;8.83;;
870;SDS011;422;51.280;7.236;2023-06-10T09:00:56;9.23;;;8.53;;
870;SDS011;422;51.280;7.236;2023-06-10T09:03:24;9.70;;;8.77;;
870;SDS011;422;51.280;7.236;2023-06-10T09:05:54;9.20;;;8.40;;
870;SDS011;422;51.280;7.236;2023-06-10T09:08:23;10.53;;;9.37;;
870;SDS011;422;51.280;7.236;2023-06-10T09:10:51;9.73;;;9.03;;
870;SDS011;422;51.280;7.236;2023-06-10T09:13:18;8.90;;;8.30;;
870;SDS011;422;51.280;7.236;2023-06-10T09:15:45;9.13;;;8.50;;
870;SDS011;422;51.280;7.236;2023-06-10T09:18:14;9.67;;;8.80;;
870;SDS011;422;51.280;7.236;2023-06-10T09:20:42;9.23;;;8.53;;
870;SDS011;422;51.280;7.236;2023-06-10T09:23:11;8.70;;;8.00;;
870;SDS011;422;51.280;7.236;2023-06-10T09:25:39;9.07;;;8.40;;
870;SDS011;422;51.280;7.236;2023-06-10T09:28:12;8.20;;;7.60;;
870;SDS011;422;51.280;7.236;2023-06-10T09:30:40;9.20;;;8.40;;
870;SDS011;422;51.280;7.236;2023-06-10T09:33:10;8.87;;;8.23;;
870;SDS011;422;51.280;7.236;2023-06-10T09:35:44;9.20;;;8.30;;
870;SDS011;422;51.280;7.236;2023-06-10T09:38:19;8.87;;;8.17;;
870;SDS011;422;51.280;7.236;2023-06-10T09:40:51;9.47;;;8.53;;
870;SDS011;422;51.280;7.236;2023-06-10T09:43:19;8.53;;;7.83;;
870;SDS011;422;51.280;7.236;2023-06-10T09:45:47;8.73;;;7.93;;
870;SDS011;422;51.280;7.236;2023-06-10T09:48:15;9.13;;;8.33;;
870;SDS011;422;51.280;7.236;2023-06-10T09:50:42;8.60;;;8.00;;
870;SDS011;422;51.280;7.236;2023-06-10T09:53:10;9.33;;;8.50;;
870;SDS011;422;51.280;7.236;2023-06-10T09:55:39;9.90;;;8.90;;
870;SDS011;422;51.280;7.236;2023-06-10T09:58:08;8.30;;;7.50;;
870;SDS011;422;51.280;7.236;2023-06-10T10:00:35;8.80;;;8.10;;
870;SDS011;422;51.280;7.236;2023-06-10T10:03:03;8.93;;;8.03;;
870;SDS011;422;51.280;7.236;2023-06-10T10:05:32;7.60;;;7.10;;
870;SDS011;422;51.280;7.236;2023-06-10T10:07:59;8.30;;;7.70;;
870;SDS011;422;51.280;7.236;2023-06-10T10:10:26;9.70;;;8.13;;
870;SDS011;422;51.280;7.236;2023-06-10T10:12:55;9.10;;;8.47;;
870;SDS011;422;51.280;7.236;2023-06-10T10:15:23;8.40;;;7.60;;
870;SDS011;422;51.280;7.236;2023-06-10T10:17:56;8.67;;;7.93;;
870;SDS011;422;51.280;7.236;2023-06-10T10:20:29;8.30;;;7.57;;
870;SDS011;422;51.280;7.236;2023-06-10T10:23:01;8.93;;;8.20;;
870;SDS011;422;51.280;7.236;2023-06-10T10:25:32;8.70;;;8.10;;
870;SDS011;422;51.280;7.236;2023-06-10T10:28:05;9.47;;;8.63;;
870;SDS011;422;51.280;7.236;2023-06-10T10:30:39;9.20;;;8.50;;
870;SDS011;422;51.280;7.236;2023-06-10T10:33:09;9.97;;;9.07;;
870;SDS011;422;51.280;7.236;2023-06-10T10:35:42;8.60;;;8.00;;
870;SDS011;422;51.280;7.236;2023-06-10T10:38:11;9.03;;;8.07;;
870;SDS011;422;51.280;7.236;2023-06-10T10:40:38;9.70;;;8.83;;
870;SDS011;422;51.280;7.236;2023-06-10T10:43:08;9.17;;;8.47;;
870;SDS011;422;51.280;7.236;2023-06-10T10:45:36;10.67;;;8.20;;
870;SDS011;422;51.280;7.236;2023-06-10T10:48:05;9.60;;;8.70;;
870;SDS011;422;51.280;7.236;2023-06-10T10:50:37;9.50;;;8.63;;
870;SDS011;422;51.280;7.236;2023-06-10T10:53:05;8.83;;;8.23;;
870;SDS011;422;51.280;7.236;2023-06-10T10:55:33;8.67;;;7.60;;
870;SDS011;422;51.280;7.236;2023-06-10T10:58:02;8.70;;;8.00;;
870;SDS011;422;51.280;7.236;2023-06-10T11:00:32;9.40;;;8.60;;
870;SDS011;422;51.280;7.236;2023-06-10T11:03:04;9.63;;;9.03;;
870;SDS011;422;51.280;7.236;2023-06-10T11:05:37;9.63;;;8.60;;
870;SDS011;422;51.280;7.236;2023-06-10T11:08:06;9.33;;;8.60;;
870;SDS011;422;51.280;7.236;2023-06-10T11:10:34;8.50;;;8.00;;
870;SDS011;422;51.280;7.236;2023-06-10T11:13:05;9.40;;;8.50;;
870;SDS011;422;51.280;7.236;2023-06-10T11:15:39;9.83;;;8.47;;
870;SDS011;422;51.280;7.236;2023-06-10T11:18:15;9.07;;;8.27;;
870;SDS011;422;51.280;7.236;2023-06-10T11:20:52;10.60;;;9.60;;
870;SDS011;422;51.280;7.236;2023-06-10T11:23:38;8.97;;;8.37;;
870;SDS011;422;51.280;7.236;2023-06-10T11:26:13;13.77;;;8.97;;
870;SDS011;422;51.280;7.236;2023-06-10T11:31:43;9.90;;;9.00;;
870;SDS011;422;51.280;7.236;2023-06-10T11:34:12;9.60;;;8.83;;
870;SDS011;422;51.280;7.236;2023-06-10T11:36:40;10.60;;;9.70;;
870;SDS011;422;51.280;7.236;2023-06-10T11:39:10;10.43;;;9.40;;
870;SDS011;422;51.280;7.236;2023-06-10T11:41:39;9.03;;;8.17;;
870;SDS011;422;51.280;7.236;2023-06-10T11:44:10;9.53;;;8.83;;
870;SDS011;422;51.280;7.236;2023-06-10T11:46:38;9.40;;;8.23;;
870;SDS011;422;51.280;7.236;2023-06-10T11:49:09;9.00;;;8.30;;
870;SDS011;422;51.280;7.236;2023-06-10T11:51:37;9.30;;;8.63;;
870;SDS011;422;51.280;7.236;2023-06-10T11:54:06;9.83;;;9.13;;
870;SDS011;422;51.280;7.236;2023-06-10T11:56:35;9.70;;;8.53;;
870;SDS011;422;51.280;7.236;2023-06-10T11:59:03;9.53;;;8.60;;
870;SDS011;422;51.280;7.236;2023-06-10T12:01:33;9.40;;;8.70;;
870;SDS011;422;51.280;7.236;2023-06-10T12:04:02;9.50;;;8.80;;
870;SDS011;422;51.280;7.236;2023-06-10T12:06:41;8.70;;;8.00;;
870;SDS011;422;51.280;7.236;2023-06-10T12:09:13;9.00;;;8.30;;
870;SDS011;422;51.280;7.236;2023-06-10T12:11:42;8.93;;;8.13;;
870;SDS011;422;51.280;7.236;2023-06-10T12:14:09;8.33;;;7.73;;
870;SDS011;422;51.280;7.236;2023-06-10T12:16:36;10.60;;;8.33;;
870;SDS011;422;51.280;7.236;2023-06-10T12:19:04;9.43;;;8.73;;
870;SDS011;422;51.280;7.236;2023-06-10T12:21:32;9.57;;;8.87;;
870;SDS011;422;51.280;7.236;2023-06-10T12:24:03;9.50;;;8.80;;
870;SDS011;422;51.280;7.236;2023-06-10T12:26:38;8.53;;;7.80;;
870;SDS011;422;51.280;7.236;2023-06-10T12:29:16;9.10;;;8.30;;
870;SDS011;422;51.280;7.236;2023-06-10T12:31:57;9.50;;;8.80;;
870;SDS011;422;51.280;7.236;2023-06-10T12:34:32;8.37;;;7.77;;
870;SDS011;422;51.280;7.236;2023-06-10T12:37:03;9.10;;;8.40;;
870;SDS011;422;51.280;7.236;2023-06-10T12:39:33;9.20;;;8.50;;
870;SDS011;422;51.280;7.236;2023-06-10T12:42:00;8.83;;;8.03;;
870;SDS011;422;51.280;7.236;2023-06-10T12:44:28;8.87;;;8.17;;
870;SDS011;422;51.280;7.236;2023-06-10T12:46:56;8.67;;;8.10;;
870;SDS011;422;51.280;7.236;2023-06-10T12:49:24;8.67;;;7.97;;
870;SDS011;422;51.280;7.236;2023-06-10T12:51:51;8.10;;;7.50;;
870;SDS011;422;51.280;7.236;2023-06-10T12:54:18;8.53;;;7.93;;
870;SDS011;422;51.280;7.236;2023-06-10T12:56:47;8.60;;;7.90;;
870;SDS011;422;51.280;7.236;2023-06-10T12:59:14;10.30;;;9.40;;
870;SDS011;422;51.280;7.236;2023-06-10T13:01:42;8.50;;;7.90;;
870;SDS011;422;51.280;7.236;2023-06-10T13:04:09;9.10;;;8.40;;
870;SDS011;422;51.280;7.236;2023-06-10T13:06:36;8.67;;;8.07;;
870;SDS011;422;51.280;7.236;2023-06-10T13:09:05;8.53;;;7.93;;
870;SDS011;422;51.280;7.236;2023-06-10T13:11:35;10.43;;;8.27;;
870;SDS011;422;51.280;7.236;2023-06-10T13:14:04;8.50;;;7.80;;
870;SDS011;422;51.280;7.236;2023-06-10T13:16:31;8.90;;;8.20;;
870;SDS011;422;51.280;7.236;2023-06-10T13:18:59;8.50;;;7.90;;
870;SDS011;422;51.280;7.236;2023-06-10T13:21:28;8.20;;;7.60;;
870;SDS011;422;51.280;7.236;2023-06-10T13:23:55;8.37;;;7.57;;
870;SDS011;422;51.280;7.236;2023-06-10T13:26:22;8.43;;;7.83;;
870;SDS011;422;51.280;7.236;2023-06-10T13:28:49;9.50;;;7.90;;
870;SDS011;422;51.280;7.236;2023-06-10T13:31:19;8.93;;;8.03;;
870;SDS011;422;51.280;7.236;2023-06-10T13:33:47;10.33;;;9.57;;
870;SDS011;422;51.280;7.236;2023-06-10T13:36:14;9.57;;;8.77;;
870;SDS011;422;51.280;7.236;2023-06-10T13:38:41;8.03;;;7.27;;
870;SDS011;422;51.280;7.236;2023-06-10T13:41:09;8.70;;;8.00;;
870;SDS011;422;51.280;7.236;2023-06-10T13:43:37;8.93;;;8.00;;
870;SDS011;422;51.280;7.236;2023-06-10T13:46:05;8.32;;;7.72;;
870;SDS011;422;51.280;7.236;2023-06-10T13:48:34;9.23;;;8.45;;
870;SDS011;422;51.280;7.236;2023-06-10T13:51:01;8.60;;;7.90;;
870;SDS011;422;51.280;7.236;2023-06-10T13:53:29;8.30;;;7.80;;
870;SDS011;422;51.280;7.236;2023-06-10T13:55:56;8.43;;;7.83;;
870;SDS011;422;51.280;7.236;2023-06-10T13:58:23;8.10;;;7.40;;
870;SDS011;422;51.280;7.236;2023-06-10T14:00:51;8.43;;;7.70;;
870;SDS011;422;51.280;7.236;2023-06-10T14:03:18;9.10;;;8.43;;
870;SDS011;422;51.280;7.236;2023-06-10T14:05:47;8.83;;;8.10;;
870;SDS011;422;51.280;7.236;2023-06-10T14:08:14;9.00;;;8.30;;
870;SDS011;422;51.280;7.236;2023-06-10T14:10:41;9.60;;;8.90;;
870;SDS011;422;51.280;7.236;2023-06-10T14:13:09;7.90;;;7.30;;
870;SDS011;422;51.280;7.236;2023-06-10T14:15:36;9.20;;;8.43;;
870;SDS011;422;51.280;7.236;2023-06-10T14:18:04;8.90;;;8.10;;
870;SDS011;422;51.280;7.236;2023-06-10T14:20:32;10.03;;;9.33;;
870;SDS011;422;51.280;7.236;2023-06-10T14:23:03;9.40;;;8.60;;
870;SDS011;422;51.280;7.236;2023-06-10T14:25:30;8.07;;;7.57;;
870;SDS011;422;51.280;7.236;2023-06-10T14:27:58;8.87;;;8.07;;
870;SDS011;422;51.280;7.236;2023-06-10T14:30:25;10.50;;;9.80;;
870;SDS011;422;51.280;7.236;2023-06-10T14:32:52;8.43;;;7.83;;
870;SDS011;422;51.280;7.236;2023-06-10T14:35:19;8.33;;;7.63;;
870;SDS011;422;51.280;7.236;2023-06-10T14:37:46;9.40;;;8.40;;
870;SDS011;422;51.280;7.236;2023-06-10T14:40:15;8.53;;;7.87;;
870;SDS011;422;51.280;7.236;2023-06-10T14:42:43;9.80;;;9.00;;
870;SDS011;422;51.280;7.236;2023-06-10T14:45:10;9.30;;;8.50;;
870;SDS011;422;51.280;7.236;2023-06-10T14:47:37;9.93;;;9.13;;
870;SDS011;422;51.280;7.236;2023-06-10T14:50:05;9.07;;;8.27;;
870;SDS011;422;51.280;7.236;2023-06-10T14:52:32;8.37;;;7.77;;
870;SDS011;422;51.280;7.236;2023-06-10T14:54:59;9.57;;;8.83;;
870;SDS011;422;51.280;7.236;2023-06-10T14:57:28;9.07;;;8.37;;
870;SDS011;422;51.280;7.236;2023-06-10T14:59:55;10.63;;;9.73;;
870;SDS011;422;51.280;7.236;2023-06-10T15:02:22;10.50;;;9.70;;
870;SDS011;422;51.280;7.236;2023-06-10T15:04:49;9.10;;;8.20;;
870;SDS011;422;51.280;7.236;2023-06-10T15:07:16;8.67;;;7.87;;
870;SDS011;422;51.280;7.236;2023-06-10T15:09:44;7.47;;;6.77;;
870;SDS011;422;51.280;7.236;2023-06-10T15:12:11;9.50;;;7.67;;
870;SDS011;422;51.280;7.236;2023-06-10T15:14:39;8.63;;;7.83;;
870;SDS011;422;51.280;7.236;2023-06-10T15:17:06;8.50;;;7.90;;
870;SDS011;422;51.280;7.236;2023-06-10T15:19:34;7.77;;;7.17;;
870;SDS011;422;51.280;7.236;2023-06-10T15:22:01;7.83;;;7.23;;
870;SDS011;422;51.280;7.236;2023-06-10T15:24:28;8.20;;;7.60;;
870;SDS011;422;51.280;7.236;2023-06-10T15:26:55;8.77;;;8.07;;
870;SDS011;422;51.280;7.236;2023-06-10T15:29:22;8.30;;;7.70;;
870;SDS011;422;51.280;7.236;2023-06-10T15:31:51;7.80;;;7.30;;
870;SDS011;422;51.280;7.236;2023-06-10T15:34:18;8.23;;;7.30;;
870;SDS011;422;51.280;7.236;2023-06-10T15:36:45;7.80;;;7.20;;
870;SDS011;422;51.280;7.236;2023-06-10T15:39:13;9.53;;;8.73;;